sensor_id;sensor_type;location;lat;lon;timestamp;pressure;altitude;pressure_sealevel;temperature;humidity
64644;BME280;51056;50.330;7.914;2023-06-14T00:01:28;100375.72;;;14.84;62.35
64644;BME280;51056;50.330;7.914;2023-06-14T00:04:31;100368.16;;;14.80;62.53
64644;BME280;51056;50.330;7.914;2023-06-14T00:07:36;100376.28;;;14.77;62.58
64644;BME280;51056;50.330;7.914;2023-06-14T00:10:39;100374.69;;;14.87;62.58
64644;BME280;51056;50.330;7.914;2023-06-14T00:13:44;100372.53;;;14.92;62.56
64644;BME280;51056;50.330;7.914;2023-06-14T00:16:47;100373.88;;;14.98;62.58
64644;BME280;51056;50.330;7.914;2023-06-14T00:19:50;100375.34;;;14.78;62.98
64644;BME280;51056;50.330;7.914;2023-06-14T00:22:54;100379.81;;;14.64;63.31
64644;BME280;51056;50.330;7.914;2023-06-14T00:25:59;100381.19;;;14.57;63.37
64644;BME280;51056;50.330;7.914;2023-06-14T00:29:03;100374.13;;;14.58;63.79
64644;BME280;51056;50.330;7.914;2023-06-14T00:32:07;100372.88;;;14.51;64.12
64644;BME280;51056;50.330;7.914;2023-06-14T00:35:10;100382.00;;;14.58;63.81
64644;BME280;51056;50.330;7.914;2023-06-14T00:38:13;100377.50;;;14.47;64.04
64644;BME280;51056;50.330;7.914;2023-06-14T00:41:17;100377.63;;;14.46;64.25
64644;BME280;51056;50.330;7.914;2023-06-14T00:44:20;100380.69;;;14.27;64.55
64644;BME280;51056;50.330;7.914;2023-06-14T00:47:24;100377.75;;;14.18;64.93
64644;BME280;51056;50.330;7.914;2023-06-14T00:50:28;100380.78;;;14.25;64.90
64644;BME280;51056;50.330;7.914;2023-06-14T00:53:34;100381.13;;;14.21;64.96
64644;BME280;51056;50.330;7.914;2023-06-14T00:56:38;100387.50;;;14.16;65.25
64644;BME280;51056;50.330;7.914;2023-06-14T01:02:46;100390.34;;;14.13;65.48
64644;BME280;51056;50.330;7.914;2023-06-14T01:12:42;100392.56;;;13.81;66.16
64644;BME280;51056;50.330;7.914;2023-06-14T01:15:47;100396.47;;;13.76;66.43
64644;BME280;51056;50.330;7.914;2023-06-14T01:18:51;100388.03;;;13.70;66.49
64644;BME280;51056;50.330;7.914;2023-06-14T01:21:55;100386.38;;;13.69;66.80
64644;BME280;51056;50.330;7.914;2023-06-14T01:24:58;100398.56;;;13.70;66.69
64644;BME280;51056;50.330;7.914;2023-06-14T01:28:04;100399.09;;;13.76;66.74
64644;BME280;51056;50.330;7.914;2023-06-14T01:31:20;100395.53;;;13.77;66.79
64644;BME280;51056;50.330;7.914;2023-06-14T01:34:24;100393.09;;;13.73;66.71
64644;BME280;51056;50.330;7.914;2023-06-14T01:37:27;100396.34;;;13.64;66.98
64644;BME280;51056;50.330;7.914;2023-06-14T01:40:31;100401.88;;;13.47;67.58
64644;BME280;51056;50.330;7.914;2023-06-14T01:43:36;100400.53;;;13.54;67.19
64644;BME280;51056;50.330;7.914;2023-06-14T01:46:41;100401.09;;;13.32;68.21
64644;BME280;51056;50.330;7.914;2023-06-14T01:49:46;100402.25;;;13.28;68.46
64644;BME280;51056;50.330;7.914;2023-06-14T01:52:49;100401.63;;;13.24;68.72
64644;BME280;51056;50.330;7.914;2023-06-14T01:55:52;100403.00;;;13.43;68.09
64644;BME280;51056;50.330;7.914;2023-06-14T01:58:57;100401.75;;;13.36;68.61
64644;BME280;51056;50.330;7.914;2023-06-14T02:02:02;100404.16;;;13.39;68.30
64644;BME280;51056;50.330;7.914;2023-06-14T02:05:05;100399.72;;;13.26;68.78
64644;BME280;51056;50.330;7.914;2023-06-14T02:08:08;100396.38;;;13.10;68.90
64644;BME280;51056;50.330;7.914;2023-06-14T02:11:12;100397.94;;;13.27;68.72
64644;BME280;51056;50.330;7.914;2023-06-14T02:14:15;100398.75;;;13.55;66.99
64644;BME280;51056;50.330;7.914;2023-06-14T02:17:20;100404.41;;;13.21;68.31
64644;BME280;51056;50.330;7.914;2023-06-14T02:20:23;100402.84;;;13.04;69.23
64644;BME280;51056;50.330;7.914;2023-06-14T02:23:26;100412.00;;;12.99;69.30
64644;BME280;51056;50.330;7.914;2023-06-14T02:26:30;100407.03;;;12.94;69.47
64644;BME280;51056;50.330;7.914;2023-06-14T02:29:35;100406.56;;;12.88;70.04
64644;BME280;51056;50.330;7.914;2023-06-14T02:32:40;100399.78;;;12.98;69.38
64644;BME280;51056;50.330;7.914;2023-06-14T02:35:43;100412.56;;;12.90;69.77
64644;BME280;51056;50.330;7.914;2023-06-14T02:38:47;100411.69;;;12.76;70.38
64644;BME280;51056;50.330;7.914;2023-06-14T02:41:50;100408.75;;;12.81;70.58
64644;BME280;51056;50.330;7.914;2023-06-14T02:44:53;100415.59;;;12.84;70.25
64644;BME280;51056;50.330;7.914;2023-06-14T02:47:57;100416.13;;;12.89;70.35
64644;BME280;51056;50.330;7.914;2023-06-14T02:51:01;100417.25;;;12.85;70.54
64644;BME280;51056;50.330;7.914;2023-06-14T02:54:04;100417.75;;;12.77;70.78
64644;BME280;51056;50.330;7.914;2023-06-14T02:57:07;100419.13;;;12.83;70.17
64644;BME280;51056;50.330;7.914;2023-06-14T03:00:11;100416.34;;;12.71;70.85
64644;BME280;51056;50.330;7.914;2023-06-14T03:03:16;100427.81;;;12.70;70.92
64644;BME280;51056;50.330;7.914;2023-06-14T03:06:28;100423.84;;;12.77;70.70
64644;BME280;51056;50.330;7.914;2023-06-14T03:09:35;100425.72;;;12.75;70.82
64644;BME280;51056;50.330;7.914;2023-06-14T03:12:40;100434.16;;;12.80;70.42
64644;BME280;51056;50.330;7.914;2023-06-14T03:15:45;100429.66;;;12.68;70.94
64644;BME280;51056;50.330;7.914;2023-06-14T03:18:51;100442.03;;;12.66;71.03
64644;BME280;51056;50.330;7.914;2023-06-14T03:22:00;100441.03;;;12.54;71.68
64644;BME280;51056;50.330;7.914;2023-06-14T03:25:06;100443.34;;;12.59;71.65
64644;BME280;51056;50.330;7.914;2023-06-14T03:28:13;100448.50;;;12.61;71.91
64644;BME280;51056;50.330;7.914;2023-06-14T03:31:17;100447.94;;;12.55;71.70
64644;BME280;51056;50.330;7.914;2023-06-14T03:34:20;100454.03;;;12.42;72.28
64644;BME280;51056;50.330;7.914;2023-06-14T03:37:23;100464.91;;;12.36;72.34
64644;BME280;51056;50.330;7.914;2023-06-14T03:40:27;100466.59;;;12.37;72.51
64644;BME280;51056;50.330;7.914;2023-06-14T03:43:36;100478.09;;;12.34;72.53
64644;BME280;51056;50.330;7.914;2023-06-14T03:46:39;100474.09;;;12.28;72.96
64644;BME280;51056;50.330;7.914;2023-06-14T03:49:42;100481.75;;;12.46;72.30
64644;BME280;51056;50.330;7.914;2023-06-14T03:52:47;100485.88;;;12.36;72.68
64644;BME280;51056;50.330;7.914;2023-06-14T03:55:52;100486.06;;;12.47;72.37
64644;BME280;51056;50.330;7.914;2023-06-14T03:58:57;100488.69;;;12.32;72.79
64644;BME280;51056;50.330;7.914;2023-06-14T04:02:03;100487.56;;;12.37;72.71
64644;BME280;51056;50.330;7.914;2023-06-14T04:05:06;100487.38;;;12.25;73.18
64644;BME280;51056;50.330;7.914;2023-06-14T04:08:13;100492.03;;;12.20;73.43
64644;BME280;51056;50.330;7.914;2023-06-14T04:11:17;100498.41;;;12.30;73.47
64644;BME280;51056;50.330;7.914;2023-06-14T04:14:21;100498.22;;;12.33;72.99
64644;BME280;51056;50.330;7.914;2023-06-14T04:17:24;100506.69;;;12.39;72.57
64644;BME280;51056;50.330;7.914;2023-06-14T04:20:27;100504.88;;;12.39;72.76
64644;BME280;51056;50.330;7.914;2023-06-14T04:23:30;100506.75;;;12.37;72.83
64644;BME280;51056;50.330;7.914;2023-06-14T04:26:33;100515.47;;;12.38;73.12
64644;BME280;51056;50.330;7.914;2023-06-14T04:29:37;100514.16;;;12.59;72.16
64644;BME280;51056;50.330;7.914;2023-06-14T04:32:47;100511.63;;;12.43;72.92
64644;BME280;51056;50.330;7.914;2023-06-14T04:35:52;100516.03;;;12.57;72.16
64644;BME280;51056;50.330;7.914;2023-06-14T04:38:57;100518.09;;;12.66;71.14
64644;BME280;51056;50.330;7.914;2023-06-14T04:42:03;100511.72;;;12.56;71.53
64644;BME280;51056;50.330;7.914;2023-06-14T04:45:08;100522.59;;;12.50;72.32
64644;BME280;51056;50.330;7.914;2023-06-14T04:48:14;100515.66;;;12.49;72.80
64644;BME280;51056;50.330;7.914;2023-06-14T04:51:17;100518.50;;;12.74;71.52
64644;BME280;51056;50.330;7.914;2023-06-14T04:54:24;100515.47;;;12.66;70.72
64644;BME280;51056;50.330;7.914;2023-06-14T04:57:30;100513.88;;;12.49;70.54
64644;BME280;51056;50.330;7.914;2023-06-14T05:00:35;100523.72;;;12.60;70.07
64644;BME280;51056;50.330;7.914;2023-06-14T05:03:39;100517.53;;;12.75;69.64
64644;BME280;51056;50.330;7.914;2023-06-14T05:06:44;100521.84;;;13.05;68.71
64644;BME280;51056;50.330;7.914;2023-06-14T05:09:48;100508.69;;;13.19;68.61
64644;BME280;51056;50.330;7.914;2023-06-14T05:12:51;100522.75;;;13.18;68.75
64644;BME280;51056;50.330;7.914;2023-06-14T05:15:56;100519.91;;;13.36;68.63
64644;BME280;51056;50.330;7.914;2023-06-14T05:18:59;100522.78;;;13.45;67.80
64644;BME280;51056;50.330;7.914;2023-06-14T05:22:02;100524.56;;;13.59;67.61
64644;BME280;51056;50.330;7.914;2023-06-14T05:25:06;100523.59;;;13.60;67.69
64644;BME280;51056;50.330;7.914;2023-06-14T05:28:09;100515.31;;;13.66;67.75
64644;BME280;51056;50.330;7.914;2023-06-14T05:31:13;100532.69;;;13.69;68.08
64644;BME280;51056;50.330;7.914;2023-06-14T05:34:16;100531.22;;;13.78;67.88
64644;BME280;51056;50.330;7.914;2023-06-14T05:37:18;100527.28;;;13.85;68.02
64644;BME280;51056;50.330;7.914;2023-06-14T05:40:22;100528.34;;;13.95;67.98
64644;BME280;51056;50.330;7.914;2023-06-14T05:43:24;100530.66;;;14.12;68.12
64644;BME280;51056;50.330;7.914;2023-06-14T05:46:30;100527.84;;;14.28;67.69
64644;BME280;51056;50.330;7.914;2023-06-14T05:49:37;100537.13;;;14.47;67.04
64644;BME280;51056;50.330;7.914;2023-06-14T05:56:35;100539.16;;;14.69;66.40
64644;BME280;51056;50.330;7.914;2023-06-14T05:59:38;100539.16;;;14.81;66.26
64644;BME280;51056;50.330;7.914;2023-06-14T06:02:44;100534.59;;;14.96;66.13
64644;BME280;51056;50.330;7.914;2023-06-14T06:05:47;100540.25;;;15.16;65.74
64644;BME280;51056;50.330;7.914;2023-06-14T06:12:19;100542.81;;;15.41;63.85
64644;BME280;51056;50.330;7.914;2023-06-14T06:15:22;100534.75;;;15.55;63.93
64644;BME280;51056;50.330;7.914;2023-06-14T06:18:25;100540.00;;;15.68;63.91
64644;BME280;51056;50.330;7.914;2023-06-14T06:21:28;100538.97;;;15.82;62.54
64644;BME280;51056;50.330;7.914;2023-06-14T06:24:31;100538.81;;;15.96;60.31
64644;BME280;51056;50.330;7.914;2023-06-14T06:27:33;100540.06;;;16.15;59.69
64644;BME280;51056;50.330;7.914;2023-06-14T06:30:36;100536.00;;;16.33;57.49
64644;BME280;51056;50.330;7.914;2023-06-14T06:33:40;100543.50;;;16.50;57.43
64644;BME280;51056;50.330;7.914;2023-06-14T06:36:43;100544.22;;;16.64;56.75
64644;BME280;51056;50.330;7.914;2023-06-14T06:39:46;100542.47;;;16.76;55.03
64644;BME280;51056;50.330;7.914;2023-06-14T06:42:51;100552.19;;;16.86;54.76
64644;BME280;51056;50.330;7.914;2023-06-14T06:45:56;100543.41;;;16.97;53.70
64644;BME280;51056;50.330;7.914;2023-06-14T06:48:59;100548.09;;;17.05;53.03
64644;BME280;51056;50.330;7.914;2023-06-14T06:52:03;100550.50;;;17.08;52.83
64644;BME280;51056;50.330;7.914;2023-06-14T06:55:07;100550.47;;;17.19;52.68
64644;BME280;51056;50.330;7.914;2023-06-14T06:58:11;100552.41;;;17.28;52.26
64644;BME280;51056;50.330;7.914;2023-06-14T07:01:15;100549.03;;;17.37;51.89
64644;BME280;51056;50.330;7.914;2023-06-14T07:04:19;100550.44;;;17.41;51.53
64644;BME280;51056;50.330;7.914;2023-06-14T07:07:22;100561.25;;;17.50;51.88
64644;BME280;51056;50.330;7.914;2023-06-14T07:10:25;100549.94;;;17.48;51.01
64644;BME280;51056;50.330;7.914;2023-06-14T07:13:31;100551.41;;;17.52;50.95
64644;BME280;51056;50.330;7.914;2023-06-14T07:16:34;100545.81;;;17.66;50.77
64644;BME280;51056;50.330;7.914;2023-06-14T07:19:38;100546.88;;;17.75;50.49
64644;BME280;51056;50.330;7.914;2023-06-14T07:22:44;100544.00;;;17.78;49.52
64644;BME280;51056;50.330;7.914;2023-06-14T07:25:48;100552.53;;;17.81;49.59
64644;BME280;51056;50.330;7.914;2023-06-14T07:28:53;100546.50;;;17.91;49.69
64644;BME280;51056;50.330;7.914;2023-06-14T07:31:55;100557.25;;;17.99;49.31
64644;BME280;51056;50.330;7.914;2023-06-14T07:34:58;100552.44;;;18.04;49.58
64644;BME280;51056;50.330;7.914;2023-06-14T07:38:01;100554.19;;;18.15;49.23
64644;BME280;51056;50.330;7.914;2023-06-14T07:41:04;100546.56;;;18.21;48.83
64644;BME280;51056;50.330;7.914;2023-06-14T07:44:07;100554.81;;;18.28;48.75
64644;BME280;51056;50.330;7.914;2023-06-14T07:47:10;100551.03;;;18.42;48.94
64644;BME280;51056;50.330;7.914;2023-06-14T07:50:14;100546.56;;;18.42;48.32
64644;BME280;51056;50.330;7.914;2023-06-14T07:53:17;100545.22;;;18.48;48.69
64644;BME280;51056;50.330;7.914;2023-06-14T07:56:21;100548.50;;;18.61;48.17
64644;BME280;51056;50.330;7.914;2023-06-14T07:59:24;100549.38;;;18.71;48.37
64644;BME280;51056;50.330;7.914;2023-06-14T08:02:27;100539.25;;;18.76;47.93
64644;BME280;51056;50.330;7.914;2023-06-14T08:05:30;100539.56;;;18.83;47.08
64644;BME280;51056;50.330;7.914;2023-06-14T08:08:33;100551.59;;;18.97;46.74
64644;BME280;51056;50.330;7.914;2023-06-14T08:11:39;100540.47;;;19.03;45.80
64644;BME280;51056;50.330;7.914;2023-06-14T08:14:43;100547.63;;;19.12;46.08
64644;BME280;51056;50.330;7.914;2023-06-14T08:17:46;100547.66;;;19.22;46.02
64644;BME280;51056;50.330;7.914;2023-06-14T08:20:49;100545.28;;;19.28;45.64
64644;BME280;51056;50.330;7.914;2023-06-14T08:23:52;100546.84;;;19.41;45.36
64644;BME280;51056;50.330;7.914;2023-06-14T08:26:56;100541.28;;;19.44;45.01
64644;BME280;51056;50.330;7.914;2023-06-14T08:30:05;100541.28;;;19.44;45.00
64644;BME280;51056;50.330;7.914;2023-06-14T08:33:08;100538.53;;;19.65;44.72
64644;BME280;51056;50.330;7.914;2023-06-14T08:36:11;100541.75;;;19.68;44.11
64644;BME280;51056;50.330;7.914;2023-06-14T08:39:15;100533.91;;;19.57;44.53
64644;BME280;51056;50.330;7.914;2023-06-14T08:42:18;100536.56;;;19.57;43.93
64644;BME280;51056;50.330;7.914;2023-06-14T08:45:24;100539.53;;;19.64;44.39
64644;BME280;51056;50.330;7.914;2023-06-14T08:48:30;100534.78;;;19.67;44.09
64644;BME280;51056;50.330;7.914;2023-06-14T08:51:36;100535.31;;;19.71;43.70
64644;BME280;51056;50.330;7.914;2023-06-14T08:54:40;100531.84;;;19.80;44.17
64644;BME280;51056;50.330;7.914;2023-06-14T08:57:46;100533.66;;;19.80;43.80
64644;BME280;51056;50.330;7.914;2023-06-14T09:00:51;100539.97;;;19.79;43.86
64644;BME280;51056;50.330;7.914;2023-06-14T09:03:58;100538.41;;;19.86;43.72
64644;BME280;51056;50.330;7.914;2023-06-14T09:07:01;100549.88;;;19.96;43.88
64644;BME280;51056;50.330;7.914;2023-06-14T09:10:08;100544.69;;;20.04;43.39
64644;BME280;51056;50.330;7.914;2023-06-14T09:13:16;100540.63;;;20.00;43.27
64644;BME280;51056;50.330;7.914;2023-06-14T09:16:23;100546.50;;;20.04;43.82
64644;BME280;51056;50.330;7.914;2023-06-14T09:19:25;100557.97;;;20.04;43.60
64644;BME280;51056;50.330;7.914;2023-06-14T09:22:29;100551.25;;;20.00;43.85
64644;BME280;51056;50.330;7.914;2023-06-14T09:25:34;100560.75;;;20.12;42.70
64644;BME280;51056;50.330;7.914;2023-06-14T09:28:53;100566.19;;;20.20;42.47
64644;BME280;51056;50.330;7.914;2023-06-14T09:31:56;100566.47;;;20.27;42.64
64644;BME280;51056;50.330;7.914;2023-06-14T09:35:00;100573.88;;;20.33;41.36
64644;BME280;51056;50.330;7.914;2023-06-14T09:38:04;100573.88;;;20.33;40.47
64644;BME280;51056;50.330;7.914;2023-06-14T09:41:07;100569.09;;;20.37;40.38
64644;BME280;51056;50.330;7.914;2023-06-14T09:44:10;100575.53;;;20.44;39.48
64644;BME280;51056;50.330;7.914;2023-06-14T09:47:30;100565.59;;;20.46;40.29
64644;BME280;51056;50.330;7.914;2023-06-14T09:50:40;100573.28;;;20.49;40.92
64644;BME280;51056;50.330;7.914;2023-06-14T09:53:46;100570.66;;;20.39;39.98
64644;BME280;51056;50.330;7.914;2023-06-14T09:56:57;100576.34;;;20.54;40.85
64644;BME280;51056;50.330;7.914;2023-06-14T10:00:02;100579.28;;;20.61;40.18
64644;BME280;51056;50.330;7.914;2023-06-14T10:03:21;100575.78;;;20.60;40.11
64644;BME280;51056;50.330;7.914;2023-06-14T10:06:24;100577.47;;;20.61;40.53
64644;BME280;51056;50.330;7.914;2023-06-14T10:09:28;100575.63;;;20.72;39.37
64644;BME280;51056;50.330;7.914;2023-06-14T10:12:33;100575.50;;;20.63;39.09
64644;BME280;51056;50.330;7.914;2023-06-14T10:15:57;100564.88;;;20.63;39.80
64644;BME280;51056;50.330;7.914;2023-06-14T10:22:28;100573.50;;;20.85;39.39
64644;BME280;51056;50.330;7.914;2023-06-14T10:25:33;100557.78;;;20.92;39.32
64644;BME280;51056;50.330;7.914;2023-06-14T10:28:37;100565.94;;;20.90;39.75
64644;BME280;51056;50.330;7.914;2023-06-14T10:31:44;100568.72;;;20.88;39.06
64644;BME280;51056;50.330;7.914;2023-06-14T10:34:53;100559.47;;;20.93;40.20
64644;BME280;51056;50.330;7.914;2023-06-14T10:38:05;100562.72;;;21.14;39.39
64644;BME280;51056;50.330;7.914;2023-06-14T10:41:09;100561.56;;;21.26;39.49
64644;BME280;51056;50.330;7.914;2023-06-14T10:47:25;100563.66;;;21.23;38.79
64644;BME280;51056;50.330;7.914;2023-06-14T10:50:28;100578.75;;;21.32;38.69
64644;BME280;51056;50.330;7.914;2023-06-14T10:53:39;100566.56;;;21.29;38.26
64644;BME280;51056;50.330;7.914;2023-06-14T10:56:52;100567.84;;;21.35;38.17
64644;BME280;51056;50.330;7.914;2023-06-14T10:59:56;100560.09;;;21.42;38.61
64644;BME280;51056;50.330;7.914;2023-06-14T11:03:24;100562.28;;;21.46;38.45
64644;BME280;51056;50.330;7.914;2023-06-14T11:06:48;100564.91;;;21.74;38.40
64644;BME280;51056;50.330;7.914;2023-06-14T11:10:05;100576.94;;;21.78;39.00
64644;BME280;51056;50.330;7.914;2023-06-14T11:13:15;100566.97;;;21.80;38.05
64644;BME280;51056;50.330;7.914;2023-06-14T11:16:19;100574.44;;;21.76;37.71
64644;BME280;51056;50.330;7.914;2023-06-14T11:19:22;100562.00;;;21.85;37.73
64644;BME280;51056;50.330;7.914;2023-06-14T11:22:25;100568.03;;;21.87;38.24
64644;BME280;51056;50.330;7.914;2023-06-14T11:25:28;100579.44;;;21.97;37.48
64644;BME280;51056;50.330;7.914;2023-06-14T11:28:41;100569.75;;;22.14;37.43
64644;BME280;51056;50.330;7.914;2023-06-14T11:31:44;100570.38;;;22.26;37.79
64644;BME280;51056;50.330;7.914;2023-06-14T11:34:50;100579.59;;;22.32;36.45
64644;BME280;51056;50.330;7.914;2023-06-14T11:37:57;100577.31;;;22.37;36.80
64644;BME280;51056;50.330;7.914;2023-06-14T11:41:00;100571.13;;;22.36;35.92
64644;BME280;51056;50.330;7.914;2023-06-14T11:44:04;100576.22;;;22.29;36.46
64644;BME280;51056;50.330;7.914;2023-06-14T11:51:06;100559.22;;;22.22;36.63
64644;BME280;51056;50.330;7.914;2023-06-14T11:54:09;100563.31;;;22.35;36.42
64644;BME280;51056;50.330;7.914;2023-06-14T11:57:13;100557.38;;;22.23;37.11
64644;BME280;51056;50.330;7.914;2023-06-14T12:00:17;100570.25;;;22.27;37.26
64644;BME280;51056;50.330;7.914;2023-06-14T12:03:24;100571.84;;;22.02;37.01
64644;BME280;51056;50.330;7.914;2023-06-14T12:06:29;100558.44;;;22.12;36.59
64644;BME280;51056;50.330;7.914;2023-06-14T12:12:38;100556.44;;;22.32;36.27
64644;BME280;51056;50.330;7.914;2023-06-14T12:15:41;100555.72;;;22.48;36.63
64644;BME280;51056;50.330;7.914;2023-06-14T12:18:45;100553.25;;;22.55;35.90
64644;BME280;51056;50.330;7.914;2023-06-14T12:21:48;100550.88;;;22.69;35.69
64644;BME280;51056;50.330;7.914;2023-06-14T12:24:52;100543.41;;;22.81;35.51
64644;BME280;51056;50.330;7.914;2023-06-14T12:27:55;100552.50;;;22.96;35.41
64644;BME280;51056;50.330;7.914;2023-06-14T12:30:58;100546.69;;;22.67;35.08
64644;BME280;51056;50.330;7.914;2023-06-14T12:34:02;100552.47;;;22.88;34.85
64644;BME280;51056;50.330;7.914;2023-06-14T12:37:05;100550.63;;;23.23;34.69
64644;BME280;51056;50.330;7.914;2023-06-14T12:40:13;100554.72;;;23.52;34.34
64644;BME280;51056;50.330;7.914;2023-06-14T12:43:18;100533.19;;;23.53;34.10
64644;BME280;51056;50.330;7.914;2023-06-14T12:46:21;100532.28;;;23.28;33.67
64644;BME280;51056;50.330;7.914;2023-06-14T12:49:27;100536.38;;;23.57;33.79
64644;BME280;51056;50.330;7.914;2023-06-14T12:52:38;100549.78;;;23.81;33.59
64644;BME280;51056;50.330;7.914;2023-06-14T12:55:41;100540.94;;;23.81;33.19
64644;BME280;51056;50.330;7.914;2023-06-14T12:58:43;100538.44;;;24.04;33.03
64644;BME280;51056;50.330;7.914;2023-06-14T13:01:47;100544.75;;;24.27;32.75
64644;BME280;51056;50.330;7.914;2023-06-14T13:04:56;100534.06;;;24.35;32.58
64644;BME280;51056;50.330;7.914;2023-06-14T13:08:02;100537.59;;;23.95;32.28
64644;BME280;51056;50.330;7.914;2023-06-14T13:11:07;100552.06;;;23.68;33.35
64644;BME280;51056;50.330;7.914;2023-06-14T13:14:10;100547.59;;;23.77;33.46
64644;BME280;51056;50.330;7.914;2023-06-14T13:17:13;100547.13;;;23.98;32.83
64644;BME280;51056;50.330;7.914;2023-06-14T13:20:17;100548.44;;;24.26;32.74
64644;BME280;51056;50.330;7.914;2023-06-14T13:23:20;100550.69;;;24.78;31.91
64644;BME280;51056;50.330;7.914;2023-06-14T13:26:23;100540.69;;;24.72;31.59
64644;BME280;51056;50.330;7.914;2023-06-14T13:29:25;100537.06;;;25.13;31.14
64644;BME280;51056;50.330;7.914;2023-06-14T13:32:29;100535.78;;;25.32;30.35
64644;BME280;51056;50.330;7.914;2023-06-14T13:35:32;100541.50;;;24.89;31.50
64644;BME280;51056;50.330;7.914;2023-06-14T13:38:35;100550.09;;;24.52;31.68
64644;BME280;51056;50.330;7.914;2023-06-14T13:41:41;100550.78;;;24.13;32.48
64644;BME280;51056;50.330;7.914;2023-06-14T13:44:46;100548.63;;;24.41;32.39
64644;BME280;51056;50.330;7.914;2023-06-14T13:47:49;100554.13;;;24.31;32.09
64644;BME280;51056;50.330;7.914;2023-06-14T13:50:52;100549.50;;;24.89;32.16
64644;BME280;51056;50.330;7.914;2023-06-14T13:53:56;100539.03;;;25.50;31.68
64644;BME280;51056;50.330;7.914;2023-06-14T13:56:59;100534.50;;;25.82;30.53
64644;BME280;51056;50.330;7.914;2023-06-14T14:00:02;100530.84;;;25.97;30.49
64644;BME280;51056;50.330;7.914;2023-06-14T14:03:21;100538.84;;;25.20;30.78
64644;BME280;51056;50.330;7.914;2023-06-14T14:06:24;100542.59;;;25.03;31.44
64644;BME280;51056;50.330;7.914;2023-06-14T14:09:27;100542.72;;;25.10;31.45
64644;BME280;51056;50.330;7.914;2023-06-14T14:12:31;100532.50;;;25.75;29.58
64644;BME280;51056;50.330;7.914;2023-06-14T14:15:34;100515.59;;;26.51;28.95
64644;BME280;51056;50.330;7.914;2023-06-14T14:18:37;100522.81;;;26.50;28.40
64644;BME280;51056;50.330;7.914;2023-06-14T14:21:41;100519.09;;;26.36;29.78
64644;BME280;51056;50.330;7.914;2023-06-14T14:24:44;100526.94;;;25.85;30.09
64644;BME280;51056;50.330;7.914;2023-06-14T14:27:47;100534.47;;;25.27;31.42
64644;BME280;51056;50.330;7.914;2023-06-14T14:30:50;100531.19;;;25.09;32.03
64644;BME280;51056;50.330;7.914;2023-06-14T14:33:54;100519.81;;;29.37;26.71
64644;BME280;51056;50.330;7.914;2023-06-14T14:37:00;100513.34;;;33.17;21.52
64644;BME280;51056;50.330;7.914;2023-06-14T14:40:03;100516.47;;;33.32;20.63
64644;BME280;51056;50.330;7.914;2023-06-14T14:43:06;100517.44;;;30.16;23.12
64644;BME280;51056;50.330;7.914;2023-06-14T14:46:09;100517.81;;;29.86;23.87
64644;BME280;51056;50.330;7.914;2023-06-14T14:49:12;100524.44;;;31.91;22.62
64644;BME280;51056;50.330;7.914;2023-06-14T14:52:18;100527.78;;;29.72;24.03
64644;BME280;51056;50.330;7.914;2023-06-14T14:55:22;100529.09;;;27.74;27.29
64644;BME280;51056;50.330;7.914;2023-06-14T14:58:26;100525.38;;;26.43;28.57
64644;BME280;51056;50.330;7.914;2023-06-14T15:01:30;100521.44;;;27.93;27.08
64644;BME280;51056;50.330;7.914;2023-06-14T15:04:33;100512.13;;;32.39;21.93
64644;BME280;51056;50.330;7.914;2023-06-14T15:07:36;100510.38;;;34.72;19.19
64644;BME280;51056;50.330;7.914;2023-06-14T15:10:40;100505.69;;;34.33;19.01
64644;BME280;51056;50.330;7.914;2023-06-14T15:13:46;100519.69;;;31.10;22.26
64644;BME280;51056;50.330;7.914;2023-06-14T15:16:50;100524.72;;;29.14;24.92
64644;BME280;51056;50.330;7.914;2023-06-14T15:19:53;100520.56;;;31.74;22.40
64644;BME280;51056;50.330;7.914;2023-06-14T15:22:56;100513.88;;;34.85;19.28
64644;BME280;51056;50.330;7.914;2023-06-14T15:26:02;100509.84;;;36.07;18.23
64644;BME280;51056;50.330;7.914;2023-06-14T15:29:06;100510.28;;;36.38;17.59
64644;BME280;51056;50.330;7.914;2023-06-14T15:32:10;100512.00;;;36.44;16.82
64644;BME280;51056;50.330;7.914;2023-06-14T15:35:23;100511.50;;;36.86;16.34
64644;BME280;51056;50.330;7.914;2023-06-14T15:38:27;100502.53;;;37.72;16.04
64644;BME280;51056;50.330;7.914;2023-06-14T15:45:14;100498.16;;;37.38;15.95
64644;BME280;51056;50.330;7.914;2023-06-14T15:48:17;100493.22;;;37.08;16.26
64644;BME280;51056;50.330;7.914;2023-06-14T15:51:20;100507.56;;;33.13;19.64
64644;BME280;51056;50.330;7.914;2023-06-14T15:54:23;100510.03;;;31.66;21.78
64644;BME280;51056;50.330;7.914;2023-06-14T15:57:35;100498.97;;;29.86;24.11
64644;BME280;51056;50.330;7.914;2023-06-14T16:00:39;100510.06;;;31.27;22.36
64644;BME280;51056;50.330;7.914;2023-06-14T16:03:45;100494.56;;;31.48;21.99
64644;BME280;51056;50.330;7.914;2023-06-14T16:06:48;100496.53;;;31.27;22.58
64644;BME280;51056;50.330;7.914;2023-06-14T16:09:51;100481.31;;;30.37;22.85
64644;BME280;51056;50.330;7.914;2023-06-14T16:12:54;100483.00;;;29.84;23.19
64644;BME280;51056;50.330;7.914;2023-06-14T16:15:58;100498.53;;;28.94;25.04
64644;BME280;51056;50.330;7.914;2023-06-14T16:19:01;100486.78;;;29.02;24.78
64644;BME280;51056;50.330;7.914;2023-06-14T16:22:05;100490.00;;;27.72;26.57
64644;BME280;51056;50.330;7.914;2023-06-14T16:25:11;100504.91;;;27.53;26.67
64644;BME280;51056;50.330;7.914;2023-06-14T16:28:15;100499.78;;;26.85;28.16
64644;BME280;51056;50.330;7.914;2023-06-14T16:31:18;100508.13;;;26.76;28.61
64644;BME280;51056;50.330;7.914;2023-06-14T16:34:21;100508.19;;;26.23;28.99
64644;BME280;51056;50.330;7.914;2023-06-14T16:37:25;100511.13;;;25.90;29.79
64644;BME280;51056;50.330;7.914;2023-06-14T16:40:27;100505.31;;;25.87;29.80